sensor_id;sensor_type;location;lat;lon;timestamp;temperature;humidity
5128;DHT22;2582;48.770;9.190;2022-10-26T00:00:46;15.30;99.90
5128;DHT22;2582;48.770;9.190;2022-10-26T00:03:12;15.40;99.90
5128;DHT22;2582;48.770;9.190;2022-10-26T00:05:37;15.40;99.90
5128;DHT22;2582;48.770;9.190;2022-10-26T00:08:04;15.40;99.90
5128;DHT22;2582;48.770;9.190;2022-10-26T00:10:30;15.40;99.90
5128;DHT22;2582;48.770;9.190;2022-10-26T00:12:57;15.20;99.90
5128;DHT22;2582;48.770;9.190;2022-10-26T00:15:23;15.20;99.90
5128;DHT22;2582;48.770;9.190;2022-10-26T00:17:49;15.20;99.90
5128;DHT22;2582;48.770;9.190;2022-10-26T00:20:15;15.20;99.90
5128;DHT22;2582;48.770;9.190;2022-10-26T00:22:41;15.30;99.90
5128;DHT22;2582;48.770;9.190;2022-10-26T00:25:06;15.40;99.90
5128;DHT22;2582;48.770;9.190;2022-10-26T00:27:33;15.30;99.90
5128;DHT22;2582;48.770;9.190;2022-10-26T00:29:59;15.40;99.90
5128;DHT22;2582;48.770;9.190;2022-10-26T00:32:25;15.40;99.90
5128;DHT22;2582;48.770;9.190;2022-10-26T00:34:50;15.40;99.90
5128;DHT22;2582;48.770;9.190;2022-10-26T00:37:16;15.40;99.90
5128;DHT22;2582;48.770;9.190;2022-10-26T00:39:42;15.30;99.90
5128;DHT22;2582;48.770;9.190;2022-10-26T00:42:12;15.30;99.90
5128;DHT22;2582;48.770;9.190;2022-10-26T00:47:17;15.20;99.90
5128;DHT22;2582;48.770;9.190;2022-10-26T00:49:46;15.20;99.90
5128;DHT22;2582;48.770;9.190;2022-10-26T00:52:14;15.20;99.90
5128;DHT22;2582;48.770;9.190;2022-10-26T00:54:42;15.30;99.90
5128;DHT22;2582;48.770;9.190;2022-10-26T00:57:08;15.40;99.90
5128;DHT22;2582;48.770;9.190;2022-10-26T00:59:34;15.40;99.90
5128;DHT22;2582;48.770;9.190;2022-10-26T01:02:00;15.40;99.90
5128;DHT22;2582;48.770;9.190;2022-10-26T01:04:26;15.40;99.90
5128;DHT22;2582;48.770;9.190;2022-10-26T01:06:51;15.40;99.90
5128;DHT22;2582;48.770;9.190;2022-10-26T01:09:18;15.40;99.90
5128;DHT22;2582;48.770;9.190;2022-10-26T01:11:44;15.40;99.90
5128;DHT22;2582;48.770;9.190;2022-10-26T01:14:11;15.40;99.90
5128;DHT22;2582;48.770;9.190;2022-10-26T01:17:01;15.40;99.90
5128;DHT22;2582;48.770;9.190;2022-10-26T01:23:06;15.40;99.90
5128;DHT22;2582;48.770;9.190;2022-10-26T01:31:00;15.30;99.90
5128;DHT22;2582;48.770;9.190;2022-10-26T01:33:48;15.30;99.90
5128;DHT22;2582;48.770;9.190;2022-10-26T01:36:38;15.20;99.90
5128;DHT22;2582;48.770;9.190;2022-10-26T01:39:18;15.20;99.90
5128;DHT22;2582;48.770;9.190;2022-10-26T01:41:51;15.10;99.90
5128;DHT22;2582;48.770;9.190;2022-10-26T01:44:22;15.00;99.90
5128;DHT22;2582;48.770;9.190;2022-10-26T01:46:50;14.80;99.90
5128;DHT22;2582;48.770;9.190;2022-10-26T01:49:20;14.70;99.90
5128;DHT22;2582;48.770;9.190;2022-10-26T01:51:48;14.90;99.90
5128;DHT22;2582;48.770;9.190;2022-10-26T01:54:14;15.00;99.90
5128;DHT22;2582;48.770;9.190;2022-10-26T01:56:41;15.00;99.90
5128;DHT22;2582;48.770;9.190;2022-10-26T02:00:04;15.10;99.90
5128;DHT22;2582;48.770;9.190;2022-10-26T02:08:02;15.20;99.90
5128;DHT22;2582;48.770;9.190;2022-10-26T02:13:47;15.10;99.90
5128;DHT22;2582;48.770;9.190;2022-10-26T02:19:21;14.70;99.90
5128;DHT22;2582;48.770;9.190;2022-10-26T02:21:53;14.70;99.90
5128;DHT22;2582;48.770;9.190;2022-10-26T02:24:21;14.70;99.90
5128;DHT22;2582;48.770;9.190;2022-10-26T02:26:49;14.80;99.90
5128;DHT22;2582;48.770;9.190;2022-10-26T02:29:18;14.90;99.90
5128;DHT22;2582;48.770;9.190;2022-10-26T02:31:46;14.70;99.90
5128;DHT22;2582;48.770;9.190;2022-10-26T02:34:16;14.80;99.90
5128;DHT22;2582;48.770;9.190;2022-10-26T02:36:44;14.90;99.90
5128;DHT22;2582;48.770;9.190;2022-10-26T02:39:12;15.00;99.90
5128;DHT22;2582;48.770;9.190;2022-10-26T02:41:39;15.00;99.90
5128;DHT22;2582;48.770;9.190;2022-10-26T02:44:26;15.10;99.90
5128;DHT22;2582;48.770;9.190;2022-10-26T02:46:54;15.10;99.90
5128;DHT22;2582;48.770;9.190;2022-10-26T02:49:21;15.10;99.90
5128;DHT22;2582;48.770;9.190;2022-10-26T02:54:39;15.10;99.90
5128;DHT22;2582;48.770;9.190;2022-10-26T02:57:19;15.10;99.90
5128;DHT22;2582;48.770;9.190;2022-10-26T02:59:48;15.00;99.90
5128;DHT22;2582;48.770;9.190;2022-10-26T03:02:15;14.90;99.90
5128;DHT22;2582;48.770;9.190;2022-10-26T03:04:42;14.80;99.90
5128;DHT22;2582;48.770;9.190;2022-10-26T03:07:07;14.80;99.90
5128;DHT22;2582;48.770;9.190;2022-10-26T03:09:33;14.70;99.90
5128;DHT22;2582;48.770;9.190;2022-10-26T03:11:59;14.70;99.90
5128;DHT22;2582;48.770;9.190;2022-10-26T03:14:24;14.70;99.90
5128;DHT22;2582;48.770;9.190;2022-10-26T03:16:50;14.80;99.90
5128;DHT22;2582;48.770;9.190;2022-10-26T03:19:16;14.80;99.90
5128;DHT22;2582;48.770;9.190;2022-10-26T03:21:41;14.80;99.90
5128;DHT22;2582;48.770;9.190;2022-10-26T03:24:08;14.80;99.90
5128;DHT22;2582;48.770;9.190;2022-10-26T03:26:33;14.80;99.90
5128;DHT22;2582;48.770;9.190;2022-10-26T03:28:59;14.90;99.90
5128;DHT22;2582;48.770;9.190;2022-10-26T03:31:25;14.80;99.90
5128;DHT22;2582;48.770;9.190;2022-10-26T03:33:50;14.90;99.90
5128;DHT22;2582;48.770;9.190;2022-10-26T03:36:16;14.90;99.90
5128;DHT22;2582;48.770;9.190;2022-10-26T03:38:42;15.00;99.90
5128;DHT22;2582;48.770;9.190;2022-10-26T03:41:07;14.90;99.90
5128;DHT22;2582;48.770;9.190;2022-10-26T03:43:33;14.80;99.90
5128;DHT22;2582;48.770;9.190;2022-10-26T03:45:58;14.70;99.90
5128;DHT22;2582;48.770;9.190;2022-10-26T03:48:24;14.80;99.90
5128;DHT22;2582;48.770;9.190;2022-10-26T03:50:49;14.80;99.90
5128;DHT22;2582;48.770;9.190;2022-10-26T03:53:15;14.90;99.90
5128;DHT22;2582;48.770;9.190;2022-10-26T03:55:43;15.00;99.90
5128;DHT22;2582;48.770;9.190;2022-10-26T03:58:09;15.00;99.90
5128;DHT22;2582;48.770;9.190;2022-10-26T04:00:34;14.90;99.90
5128;DHT22;2582;48.770;9.190;2022-10-26T04:03:00;15.00;99.90
5128;DHT22;2582;48.770;9.190;2022-10-26T04:05:28;15.20;99.90
5128;DHT22;2582;48.770;9.190;2022-10-26T04:07:55;15.30;99.90
5128;DHT22;2582;48.770;9.190;2022-10-26T04:10:21;15.40;99.90
5128;DHT22;2582;48.770;9.190;2022-10-26T04:12:47;15.40;99.90
5128;DHT22;2582;48.770;9.190;2022-10-26T04:15:13;15.60;99.90
5128;DHT22;2582;48.770;9.190;2022-10-26T04:17:38;15.60;99.90
5128;DHT22;2582;48.770;9.190;2022-10-26T04:20:04;15.70;99.90
5128;DHT22;2582;48.770;9.190;2022-10-26T04:22:30;15.70;99.90
5128;DHT22;2582;48.770;9.190;2022-10-26T04:24:56;15.70;99.90
5128;DHT22;2582;48.770;9.190;2022-10-26T04:27:21;15.80;99.90
5128;DHT22;2582;48.770;9.190;2022-10-26T04:29:47;15.80;99.90
5128;DHT22;2582;48.770;9.190;2022-10-26T04:32:12;15.80;99.90
5128;DHT22;2582;48.770;9.190;2022-10-26T04:34:38;15.80;99.90
5128;DHT22;2582;48.770;9.190;2022-10-26T04:37:03;15.80;99.90
5128;DHT22;2582;48.770;9.190;2022-10-26T04:39:29;15.60;99.90
5128;DHT22;2582;48.770;9.190;2022-10-26T04:41:54;15.50;99.90
5128;DHT22;2582;48.770;9.190;2022-10-26T04:44:20;15.60;99.90
5128;DHT22;2582;48.770;9.190;2022-10-26T04:46:45;15.60;99.90
5128;DHT22;2582;48.770;9.190;2022-10-26T04:49:11;15.40;99.90
5128;DHT22;2582;48.770;9.190;2022-10-26T04:51:37;15.30;99.90
5128;DHT22;2582;48.770;9.190;2022-10-26T04:54:02;15.30;99.90
5128;DHT22;2582;48.770;9.190;2022-10-26T04:56:28;15.40;99.90
5128;DHT22;2582;48.770;9.190;2022-10-26T04:58:54;15.40;99.90
5128;DHT22;2582;48.770;9.190;2022-10-26T05:01:20;15.40;99.90
5128;DHT22;2582;48.770;9.190;2022-10-26T05:03:50;15.40;99.90
5128;DHT22;2582;48.770;9.190;2022-10-26T05:06:15;15.40;99.90
5128;DHT22;2582;48.770;9.190;2022-10-26T05:08:41;15.50;99.90
5128;DHT22;2582;48.770;9.190;2022-10-26T05:11:06;15.50;99.90
5128;DHT22;2582;48.770;9.190;2022-10-26T05:13:32;15.60;99.90
5128;DHT22;2582;48.770;9.190;2022-10-26T05:15:57;15.60;99.90
5128;DHT22;2582;48.770;9.190;2022-10-26T05:18:23;15.60;99.90
5128;DHT22;2582;48.770;9.190;2022-10-26T05:20:51;15.70;99.90
5128;DHT22;2582;48.770;9.190;2022-10-26T05:23:17;15.70;99.90
5128;DHT22;2582;48.770;9.190;2022-10-26T05:25:43;15.90;99.90
5128;DHT22;2582;48.770;9.190;2022-10-26T05:28:10;15.90;99.90
5128;DHT22;2582;48.770;9.190;2022-10-26T05:30:38;15.90;99.90
5128;DHT22;2582;48.770;9.190;2022-10-26T05:33:04;16.00;99.90
5128;DHT22;2582;48.770;9.190;2022-10-26T05:35:30;16.00;99.90
5128;DHT22;2582;48.770;9.190;2022-10-26T05:37:56;16.00;99.90
5128;DHT22;2582;48.770;9.190;2022-10-26T05:40:22;16.00;99.90
5128;DHT22;2582;48.770;9.190;2022-10-26T05:42:48;16.00;99.90
5128;DHT22;2582;48.770;9.190;2022-10-26T05:45:15;16.00;99.90
5128;DHT22;2582;48.770;9.190;2022-10-26T05:47:43;16.00;99.90
5128;DHT22;2582;48.770;9.190;2022-10-26T05:50:10;16.30;99.90
5128;DHT22;2582;48.770;9.190;2022-10-26T05:52:44;16.40;99.90
5128;DHT22;2582;48.770;9.190;2022-10-26T05:55:14;16.30;99.90
5128;DHT22;2582;48.770;9.190;2022-10-26T05:57:41;16.20;99.90
5128;DHT22;2582;48.770;9.190;2022-10-26T06:00:21;16.30;99.90
5128;DHT22;2582;48.770;9.190;2022-10-26T06:03:08;16.40;99.90
5128;DHT22;2582;48.770;9.190;2022-10-26T06:05:56;16.60;99.90
5128;DHT22;2582;48.770;9.190;2022-10-26T06:08:24;16.70;99.90
5128;DHT22;2582;48.770;9.190;2022-10-26T06:10:51;16.70;99.90
5128;DHT22;2582;48.770;9.190;2022-10-26T06:13:17;16.80;99.90
5128;DHT22;2582;48.770;9.190;2022-10-26T06:16:03;16.70;99.90
5128;DHT22;2582;48.770;9.190;2022-10-26T06:24:42;16.50;99.90
5128;DHT22;2582;48.770;9.190;2022-10-26T06:30:00;16.30;99.90
5128;DHT22;2582;48.770;9.190;2022-10-26T06:32:26;16.30;99.90
5128;DHT22;2582;48.770;9.190;2022-10-26T06:35:09;16.40;99.90
5128;DHT22;2582;48.770;9.190;2022-10-26T06:37:36;16.50;99.90
5128;DHT22;2582;48.770;9.190;2022-10-26T06:40:03;16.40;99.90
5128;DHT22;2582;48.770;9.190;2022-10-26T06:42:30;16.40;99.90
5128;DHT22;2582;48.770;9.190;2022-10-26T06:44:56;16.40;99.90
5128;DHT22;2582;48.770;9.190;2022-10-26T06:47:42;16.40;99.90
5128;DHT22;2582;48.770;9.190;2022-10-26T06:50:28;16.40;99.90
5128;DHT22;2582;48.770;9.190;2022-10-26T06:53:13;16.50;99.90
5128;DHT22;2582;48.770;9.190;2022-10-26T06:55:43;16.40;99.90
5128;DHT22;2582;48.770;9.190;2022-10-26T06:58:18;16.50;99.90
5128;DHT22;2582;48.770;9.190;2022-10-26T07:00:47;16.50;99.90
5128;DHT22;2582;48.770;9.190;2022-10-26T07:03:13;16.50;99.90
5128;DHT22;2582;48.770;9.190;2022-10-26T07:05:38;16.50;99.90
5128;DHT22;2582;48.770;9.190;2022-10-26T07:08:04;16.30;99.90
5128;DHT22;2582;48.770;9.190;2022-10-26T07:10:30;16.40;99.90
5128;DHT22;2582;48.770;9.190;2022-10-26T07:12:56;16.40;99.90
5128;DHT22;2582;48.770;9.190;2022-10-26T07:15:21;16.50;99.90
5128;DHT22;2582;48.770;9.190;2022-10-26T07:17:48;16.60;99.90
5128;DHT22;2582;48.770;9.190;2022-10-26T07:20:16;16.70;99.90
5128;DHT22;2582;48.770;9.190;2022-10-26T07:22:42;16.70;99.90
5128;DHT22;2582;48.770;9.190;2022-10-26T07:25:08;16.80;99.90
5128;DHT22;2582;48.770;9.190;2022-10-26T07:27:34;16.80;99.90
5128;DHT22;2582;48.770;9.190;2022-10-26T07:30:00;16.90;99.90
5128;DHT22;2582;48.770;9.190;2022-10-26T07:32:26;16.80;99.90
5128;DHT22;2582;48.770;9.190;2022-10-26T07:34:51;16.90;99.90
5128;DHT22;2582;48.770;9.190;2022-10-26T07:37:17;16.90;99.90
5128;DHT22;2582;48.770;9.190;2022-10-26T07:39:42;17.00;99.90
5128;DHT22;2582;48.770;9.190;2022-10-26T07:42:08;17.10;99.90
5128;DHT22;2582;48.770;9.190;2022-10-26T07:44:34;17.10;99.90
5128;DHT22;2582;48.770;9.190;2022-10-26T07:47:00;17.00;99.90
5128;DHT22;2582;48.770;9.190;2022-10-26T07:49:25;17.00;99.90
5128;DHT22;2582;48.770;9.190;2022-10-26T07:51:51;17.10;99.90
5128;DHT22;2582;48.770;9.190;2022-10-26T07:54:16;17.10;99.90
5128;DHT22;2582;48.770;9.190;2022-10-26T07:56:42;17.20;99.90
5128;DHT22;2582;48.770;9.190;2022-10-26T07:59:09;17.30;99.90
5128;DHT22;2582;48.770;9.190;2022-10-26T08:01:35;17.40;99.90
5128;DHT22;2582;48.770;9.190;2022-10-26T08:04:01;17.30;99.90
5128;DHT22;2582;48.770;9.190;2022-10-26T08:06:26;17.30;99.90
5128;DHT22;2582;48.770;9.190;2022-10-26T08:08:52;17.20;99.90
5128;DHT22;2582;48.770;9.190;2022-10-26T08:11:17;17.40;99.90
5128;DHT22;2582;48.770;9.190;2022-10-26T08:13:43;17.60;99.90
5128;DHT22;2582;48.770;9.190;2022-10-26T08:16:09;17.50;99.90
5128;DHT22;2582;48.770;9.190;2022-10-26T08:18:34;17.50;99.90
5128;DHT22;2582;48.770;9.190;2022-10-26T08:21:03;17.50;99.90
5128;DHT22;2582;48.770;9.190;2022-10-26T08:23:29;17.70;99.90
5128;DHT22;2582;48.770;9.190;2022-10-26T08:26:01;17.70;99.90
5128;DHT22;2582;48.770;9.190;2022-10-26T08:28:28;17.60;99.90
5128;DHT22;2582;48.770;9.190;2022-10-26T08:30:54;17.70;99.90
5128;DHT22;2582;48.770;9.190;2022-10-26T08:33:19;17.80;99.90
5128;DHT22;2582;48.770;9.190;2022-10-26T08:35:45;17.90;99.90
5128;DHT22;2582;48.770;9.190;2022-10-26T08:38:11;18.00;99.90
5128;DHT22;2582;48.770;9.190;2022-10-26T08:40:38;18.10;99.90
5128;DHT22;2582;48.770;9.190;2022-10-26T08:45:38;18.20;99.90
5128;DHT22;2582;48.770;9.190;2022-10-26T08:48:12;18.20;99.90
5128;DHT22;2582;48.770;9.190;2022-10-26T08:56:04;18.20;99.90
5128;DHT22;2582;48.770;9.190;2022-10-26T08:58:40;18.40;99.90
5128;DHT22;2582;48.770;9.190;2022-10-26T09:01:10;18.20;99.90
5128;DHT22;2582;48.770;9.190;2022-10-26T09:03:35;18.10;99.90
5128;DHT22;2582;48.770;9.190;2022-10-26T09:11:22;18.50;99.90
5128;DHT22;2582;48.770;9.190;2022-10-26T09:16:49;18.60;99.90
5128;DHT22;2582;48.770;9.190;2022-10-26T09:19:22;18.80;99.90
5128;DHT22;2582;48.770;9.190;2022-10-26T09:24:54;18.90;99.90
5128;DHT22;2582;48.770;9.190;2022-10-26T09:27:27;19.10;99.90
5128;DHT22;2582;48.770;9.190;2022-10-26T09:29:58;19.20;99.90
5128;DHT22;2582;48.770;9.190;2022-10-26T09:32:30;19.20;99.90
5128;DHT22;2582;48.770;9.190;2022-10-26T09:35:02;19.40;99.90
5128;DHT22;2582;48.770;9.190;2022-10-26T09:37:35;19.50;99.90
5128;DHT22;2582;48.770;9.190;2022-10-26T09:40:10;19.30;99.90
5128;DHT22;2582;48.770;9.190;2022-10-26T09:43:00;19.20;99.90
5128;DHT22;2582;48.770;9.190;2022-10-26T09:45:32;19.30;99.90
5128;DHT22;2582;48.770;9.190;2022-10-26T09:48:13;19.50;99.90
5128;DHT22;2582;48.770;9.190;2022-10-26T09:50:43;19.40;99.90
5128;DHT22;2582;48.770;9.190;2022-10-26T09:53:10;19.60;99.90
5128;DHT22;2582;48.770;9.190;2022-10-26T09:55:44;19.70;99.90
5128;DHT22;2582;48.770;9.190;2022-10-26T09:58:16;20.10;99.90
5128;DHT22;2582;48.770;9.190;2022-10-26T10:00:45;20.60;99.90
5128;DHT22;2582;48.770;9.190;2022-10-26T10:03:19;20.60;99.90
5128;DHT22;2582;48.770;9.190;2022-10-26T10:05:45;20.90;99.90
5128;DHT22;2582;48.770;9.190;2022-10-26T10:08:25;20.90;99.90
5128;DHT22;2582;48.770;9.190;2022-10-26T10:11:14;21.10;99.90
5128;DHT22;2582;48.770;9.190;2022-10-26T10:13:41;21.20;99.90
5128;DHT22;2582;48.770;9.190;2022-10-26T10:18:39;21.00;99.90
5128;DHT22;2582;48.770;9.190;2022-10-26T10:21:06;21.20;99.90
5128;DHT22;2582;48.770;9.190;2022-10-26T10:23:47;21.40;99.90
5128;DHT22;2582;48.770;9.190;2022-10-26T10:26:13;21.50;99.90
5128;DHT22;2582;48.770;9.190;2022-10-26T10:28:42;21.70;99.90
5128;DHT22;2582;48.770;9.190;2022-10-26T10:31:40;21.70;99.90
5128;DHT22;2582;48.770;9.190;2022-10-26T10:34:16;21.70;99.90
5128;DHT22;2582;48.770;9.190;2022-10-26T10:36:42;21.90;99.90
5128;DHT22;2582;48.770;9.190;2022-10-26T10:41:50;22.10;99.90
5128;DHT22;2582;48.770;9.190;2022-10-26T10:44:23;22.20;99.90
5128;DHT22;2582;48.770;9.190;2022-10-26T10:46:49;22.60;99.90
5128;DHT22;2582;48.770;9.190;2022-10-26T10:49:25;22.40;99.90
5128;DHT22;2582;48.770;9.190;2022-10-26T10:51:52;22.30;99.90
5128;DHT22;2582;48.770;9.190;2022-10-26T10:54:39;22.00;99.90
5128;DHT22;2582;48.770;9.190;2022-10-26T10:57:27;22.40;99.90
5128;DHT22;2582;48.770;9.190;2022-10-26T11:00:03;22.90;99.90
5128;DHT22;2582;48.770;9.190;2022-10-26T11:02:51;23.10;99.90
5128;DHT22;2582;48.770;9.190;2022-10-26T11:08:07;24.00;99.90
5128;DHT22;2582;48.770;9.190;2022-10-26T11:10:39;25.50;99.90
5128;DHT22;2582;48.770;9.190;2022-10-26T11:13:13;26.70;99.90
5128;DHT22;2582;48.770;9.190;2022-10-26T11:15:41;28.90;98.60
5128;DHT22;2582;48.770;9.190;2022-10-26T11:18:16;28.60;96.70
5128;DHT22;2582;48.770;9.190;2022-10-26T11:20:54;27.50;97.80
5128;DHT22;2582;48.770;9.190;2022-10-26T11:23:30;26.10;99.10
5128;DHT22;2582;48.770;9.190;2022-10-26T11:26:02;24.80;99.90
5128;DHT22;2582;48.770;9.190;2022-10-26T11:29:06;24.00;99.90
5128;DHT22;2582;48.770;9.190;2022-10-26T11:31:43;23.60;99.90
5128;DHT22;2582;48.770;9.190;2022-10-26T11:34:23;23.90;99.90
5128;DHT22;2582;48.770;9.190;2022-10-26T11:37:15;24.20;99.90
5128;DHT22;2582;48.770;9.190;2022-10-26T11:39:59;24.50;99.90
5128;DHT22;2582;48.770;9.190;2022-10-26T11:42:42;24.60;99.90
5128;DHT22;2582;48.770;9.190;2022-10-26T11:48:09;24.00;99.90
5128;DHT22;2582;48.770;9.190;2022-10-26T11:50:40;24.10;99.90
5128;DHT22;2582;48.770;9.190;2022-10-26T11:53:16;24.50;99.90
5128;DHT22;2582;48.770;9.190;2022-10-26T11:55:48;24.60;99.90
5128;DHT22;2582;48.770;9.190;2022-10-26T11:58:15;23.70;99.90
5128;DHT22;2582;48.770;9.190;2022-10-26T12:00:50;23.70;99.90
5128;DHT22;2582;48.770;9.190;2022-10-26T12:03:19;24.10;99.90
5128;DHT22;2582;48.770;9.190;2022-10-26T12:05:49;24.60;99.90
5128;DHT22;2582;48.770;9.190;2022-10-26T12:08:29;26.60;99.90
5128;DHT22;2582;48.770;9.190;2022-10-26T12:11:04;26.60;99.60
5128;DHT22;2582;48.770;9.190;2022-10-26T12:13:44;26.10;99.90
5128;DHT22;2582;48.770;9.190;2022-10-26T12:19:17;25.50;99.90
5128;DHT22;2582;48.770;9.190;2022-10-26T12:21:44;25.20;99.90
5128;DHT22;2582;48.770;9.190;2022-10-26T12:29:29;25.10;99.90
5128;DHT22;2582;48.770;9.190;2022-10-26T12:31:56;25.20;99.90
5128;DHT22;2582;48.770;9.190;2022-10-26T12:34:24;25.40;99.90
5128;DHT22;2582;48.770;9.190;2022-10-26T12:37:20;25.10;99.90
5128;DHT22;2582;48.770;9.190;2022-10-26T12:39:46;25.30;99.90
5128;DHT22;2582;48.770;9.190;2022-10-26T12:55:25;24.10;99.90
5128;DHT22;2582;48.770;9.190;2022-10-26T13:00:36;24.20;99.90
5128;DHT22;2582;48.770;9.190;2022-10-26T13:08:53;25.40;99.90
5128;DHT22;2582;48.770;9.190;2022-10-26T13:11:31;26.30;99.60
5128;DHT22;2582;48.770;9.190;2022-10-26T13:14:05;27.50;97.40
5128;DHT22;2582;48.770;9.190;2022-10-26T13:16:34;27.20;97.50
5128;DHT22;2582;48.770;9.190;2022-10-26T13:19:00;26.90;97.80
5128;DHT22;2582;48.770;9.190;2022-10-26T13:21:26;26.90;98.10
5128;DHT22;2582;48.770;9.190;2022-10-26T13:26:20;27.50;96.40
5128;DHT22;2582;48.770;9.190;2022-10-26T13:28:55;27.80;95.60
5128;DHT22;2582;48.770;9.190;2022-10-26T13:33:58;30.10;92.80
5128;DHT22;2582;48.770;9.190;2022-10-26T13:36:35;30.30;91.50
5128;DHT22;2582;48.770;9.190;2022-10-26T13:39:09;30.20;91.00
5128;DHT22;2582;48.770;9.190;2022-10-26T13:41:38;29.40;91.60
5128;DHT22;2582;48.770;9.190;2022-10-26T13:44:06;30.10;90.70
5128;DHT22;2582;48.770;9.190;2022-10-26T13:46:37;28.60;92.30
5128;DHT22;2582;48.770;9.190;2022-10-26T13:49:17;27.70;93.90
5128;DHT22;2582;48.770;9.190;2022-10-26T13:51:47;26.20;95.40
5128;DHT22;2582;48.770;9.190;2022-10-26T13:54:35;25.00;97.10
5128;DHT22;2582;48.770;9.190;2022-10-26T13:57:21;25.00;98.70
5128;DHT22;2582;48.770;9.190;2022-10-26T13:59:53;24.80;99.80
5128;DHT22;2582;48.770;9.190;2022-10-26T14:02:27;24.60;99.90
5128;DHT22;2582;48.770;9.190;2022-10-26T14:05:02;24.20;99.90
5128;DHT22;2582;48.770;9.190;2022-10-26T14:07:35;23.70;99.90
5128;DHT22;2582;48.770;9.190;2022-10-26T14:10:03;23.60;99.90
5128;DHT22;2582;48.770;9.190;2022-10-26T14:12:29;23.70;99.90
5128;DHT22;2582;48.770;9.190;2022-10-26T14:15:05;23.80;99.90
5128;DHT22;2582;48.770;9.190;2022-10-26T14:17:32;23.60;99.90
5128;DHT22;2582;48.770;9.190;2022-10-26T14:19:58;23.40;99.90
5128;DHT22;2582;48.770;9.190;2022-10-26T14:22:26;23.10;99.90
5128;DHT22;2582;48.770;9.190;2022-10-26T14:24:57;23.00;99.90
5128;DHT22;2582;48.770;9.190;2022-10-26T14:27:25;22.90;99.90
5128;DHT22;2582;48.770;9.190;2022-10-26T14:29:53;22.80;99.90
5128;DHT22;2582;48.770;9.190;2022-10-26T14:32:27;22.60;99.90
5128;DHT22;2582;48.770;9.190;2022-10-26T14:34:53;22.50;99.90
5128;DHT22;2582;48.770;9.190;2022-10-26T14:37:34;22.50;99.90
5128;DHT22;2582;48.770;9.190;2022-10-26T14:40:03;22.40;99.90
5128;DHT22;2582;48.770;9.190;2022-10-26T14:42:33;22.30;99.90
5128;DHT22;2582;48.770;9.190;2022-10-26T14:45:01;22.40;99.90
5128;DHT22;2582;48.770;9.190;2022-10-26T14:47:31;22.30;99.90
5128;DHT22;2582;48.770;9.190;2022-10-26T14:49:58;22.20;99.90
5128;DHT22;2582;48.770;9.190;2022-10-26T14:52:33;22.10;99.90
5128;DHT22;2582;48.770;9.190;2022-10-26T14:55:14;21.90;99.90
5128;DHT22;2582;48.770;9.190;2022-10-26T14:57:42;21.90;99.90
5128;DHT22;2582;48.770;9.190;2022-10-26T15:00:13;21.80;99.90
5128;DHT22;2582;48.770;9.190;2022-10-26T15:02:49;21.70;99.90
5128;DHT22;2582;48.770;9.190;2022-10-26T15:05:24;21.50;99.90
5128;DHT22;2582;48.770;9.190;2022-10-26T15:07:50;21.40;99.90
5128;DHT22;2582;48.770;9.190;2022-10-26T15:15:41;21.30;99.90
5128;DHT22;2582;48.770;9.190;2022-10-26T15:18:19;21.20;99.90
5128;DHT22;2582;48.770;9.190;2022-10-26T15:20:47;21.00;99.90
5128;DHT22;2582;48.770;9.190;2022-10-26T15:23:14;20.90;99.90
5128;DHT22;2582;48.770;9.190;2022-10-26T15:25:55;20.70;99.90
5128;DHT22;2582;48.770;9.190;2022-10-26T15:28:31;20.50;99.90
5128;DHT22;2582;48.770;9.190;2022-10-26T15:33:37;20.10;99.90
5128;DHT22;2582;48.770;9.190;2022-10-26T15:36:20;20.00;99.90
5128;DHT22;2582;48.770;9.190;2022-10-26T15:38:46;20.00;99.90
5128;DHT22;2582;48.770;9.190;2022-10-26T15:41:25;19.80;99.90
5128;DHT22;2582;48.770;9.190;2022-10-26T15:43:53;19.70;99.90
5128;DHT22;2582;48.770;9.190;2022-10-26T15:46:23;19.50;99.90
5128;DHT22;2582;48.770;9.190;2022-10-26T15:48:55;19.40;99.90
5128;DHT22;2582;48.770;9.190;2022-10-26T15:51:21;19.40;99.90
5128;DHT22;2582;48.770;9.190;2022-10-26T15:53:46;19.20;99.90
5128;DHT22;2582;48.770;9.190;2022-10-26T15:56:17;19.00;99.90
5128;DHT22;2582;48.770;9.190;2022-10-26T15:58:43;18.90;99.90
5128;DHT22;2582;48.770;9.190;2022-10-26T16:01:15;18.90;99.90
5128;DHT22;2582;48.770;9.190;2022-10-26T16:03:42;18.80;99.90
5128;DHT22;2582;48.770;9.190;2022-10-26T16:06:13;18.70;99.90
5128;DHT22;2582;48.770;9.190;2022-10-26T16:08:40;18.60;99.90
5128;DHT22;2582;48.770;9.190;2022-10-26T16:11:06;18.50;99.90
5128;DHT22;2582;48.770;9.190;2022-10-26T16:13:31;18.40;99.90
5128;DHT22;2582;48.770;9.190;2022-10-26T16:15:57;18.40;99.90
5128;DHT22;2582;48.770;9.190;2022-10-26T16:18:22;18.40;99.90
5128;DHT22;2582;48.770;9.190;2022-10-26T16:20:48;18.40;99.90
5128;DHT22;2582;48.770;9.190;2022-10-26T16:23:14;18.30;99.90
5128;DHT22;2582;48.770;9.190;2022-10-26T16:25:42;18.20;99.90
5128;DHT22;2582;48.770;9.190;2022-10-26T16:28:10;18.10;99.90
5128;DHT22;2582;48.770;9.190;2022-10-26T16:30:36;18.10;99.90
5128;DHT22;2582;48.770;9.190;2022-10-26T16:33:02;18.10;99.90
5128;DHT22;2582;48.770;9.190;2022-10-26T16:35:27;18.00;99.90
5128;DHT22;2582;48.770;9.190;2022-10-26T16:37:53;17.90;99.90
5128;DHT22;2582;48.770;9.190;2022-10-26T16:40:18;18.00;99.90
5128;DHT22;2582;48.770;9.190;2022-10-26T16:42:44;17.90;99.90
5128;DHT22;2582;48.770;9.190;2022-10-26T16:45:11;17.80;99.90
5128;DHT22;2582;48.770;9.190;2022-10-26T16:47:38;17.80;99.90
5128;DHT22;2582;48.770;9.190;2022-10-26T16:50:05;17.80;99.90
5128;DHT22;2582;48.770;9.190;2022-10-26T16:52:33;17.80;99.90
5128;DHT22;2582;48.770;9.190;2022-10-26T16:54:59;17.80;99.90
5128;DHT22;2582;48.770;9.190;2022-10-26T16:57:25;17.60;99.90
5128;DHT22;2582;48.770;9.190;2022-10-26T16:59:51;17.50;99.90
5128;DHT22;2582;48.770;9.190;2022-10-26T17:02:17;17.40;99.90
5128;DHT22;2582;48.770;9.190;2022-10-26T17:04:43;17.40;99.90
5128;DHT22;2582;48.770;9.190;2022-10-26T17:07:09;17.30;99.90
5128;DHT22;2582;48.770;9.190;2022-10-26T17:09:35;17.30;99.90
5128;DHT22;2582;48.770;9.190;2022-10-26T17:12:01;17.30;99.90
5128;DHT22;2582;48.770;9.190;2022-10-26T17:14:26;17.20;99.90
5128;DHT22;2582;48.770;9.190;2022-10-26T17:16:52;17.20;99.90
5128;DHT22;2582;48.770;9.190;2022-10-26T17:19:17;17.20;99.90
5128;DHT22;2582;48.770;9.190;2022-10-26T17:21:43;17.20;99.90
5128;DHT22;2582;48.770;9.190;2022-10-26T17:24:09;17.20;99.90
5128;DHT22;2582;48.770;9.190;2022-10-26T17:26:36;17.20;99.90
5128;DHT22;2582;48.770;9.190;2022-10-26T17:29:01;17.10;99.90
5128;DHT22;2582;48.770;9.190;2022-10-26T17:31:27;17.10;99.90
5128;DHT22;2582;48.770;9.190;2022-10-26T17:33:54;17.10;99.90
5128;DHT22;2582;48.770;9.190;2022-10-26T17:36:21;17.10;99.90
5128;DHT22;2582;48.770;9.190;2022-10-26T17:38:48;17.00;99.90
5128;DHT22;2582;48.770;9.190;2022-10-26T17:41:16;17.00;99.90
5128;DHT22;2582;48.770;9.190;2022-10-26T17:43:43;17.00;99.90
5128;DHT22;2582;48.770;9.190;2022-10-26T17:46:11;16.90;99.90
5128;DHT22;2582;48.770;9.190;2022-10-26T17:48:37;16.80;99.90
5128;DHT22;2582;48.770;9.190;2022-10-26T17:51:05;16.80;99.90
5128;DHT22;2582;48.770;9.190;2022-10-26T17:53:31;16.90;99.90
5128;DHT22;2582;48.770;9.190;2022-10-26T17:56:14;17.00;99.90
5128;DHT22;2582;48.770;9.190;2022-10-26T17:58:40;16.90;99.90
5128;DHT22;2582;48.770;9.190;2022-10-26T18:01:08;17.00;99.90
5128;DHT22;2582;48.770;9.190;2022-10-26T18:03:34;17.10;99.90
5128;DHT22;2582;48.770;9.190;2022-10-26T18:06:01;17.10;99.90